sensor_id;sensor_type;location;lat;lon;timestamp;pressure;altitude;pressure_sealevel;temperature;humidity
50349;BME280;36250;48.740;22.174;2022-12-29T00:02:01;101119.75;;;-0.39;100.00
50349;BME280;36250;48.740;22.174;2022-12-29T00:04:27;101122.38;;;-0.39;100.00
50349;BME280;36250;48.740;22.174;2022-12-29T00:06:52;101131.09;;;-0.40;100.00
50349;BME280;36250;48.740;22.174;2022-12-29T00:09:18;101121.50;;;-0.40;100.00
50349;BME280;36250;48.740;22.174;2022-12-29T00:11:44;101121.31;;;-0.37;100.00
50349;BME280;36250;48.740;22.174;2022-12-29T00:14:10;101126.53;;;-0.37;100.00
50349;BME280;36250;48.740;22.174;2022-12-29T00:16:54;101121.31;;;-0.37;100.00
50349;BME280;36250;48.740;22.174;2022-12-29T00:19:20;101118.72;;;-0.37;100.00
50349;BME280;36250;48.740;22.174;2022-12-29T00:22:04;101115.38;;;-0.39;100.00
50349;BME280;36250;48.740;22.174;2022-12-29T00:24:47;101117.31;;;-0.42;100.00
50349;BME280;36250;48.740;22.174;2022-12-29T00:27:32;101110.56;;;-0.45;100.00
50349;BME280;36250;48.740;22.174;2022-12-29T00:30:22;101106.38;;;-0.48;100.00
50349;BME280;36250;48.740;22.174;2022-12-29T00:33:30;101109.16;;;-0.51;100.00
50349;BME280;36250;48.740;22.174;2022-12-29T00:36:18;101108.44;;;-0.53;100.00
50349;BME280;36250;48.740;22.174;2022-12-29T00:38:53;101115.41;;;-0.53;100.00
50349;BME280;36250;48.740;22.174;2022-12-29T00:41:38;101126.66;;;-0.53;100.00
50349;BME280;36250;48.740;22.174;2022-12-29T00:44:22;101115.41;;;-0.53;100.00
50349;BME280;36250;48.740;22.174;2022-12-29T00:46:47;101114.56;;;-0.54;100.00
50349;BME280;36250;48.740;22.174;2022-12-29T00:49:13;101110.41;;;-0.56;100.00
50349;BME280;36250;48.740;22.174;2022-12-29T00:52:08;101104.47;;;-0.59;100.00
50349;BME280;36250;48.740;22.174;2022-12-29T00:54:36;101112.53;;;-0.63;100.00
50349;BME280;36250;48.740;22.174;2022-12-29T00:57:02;101112.63;;;-0.65;100.00
50349;BME280;36250;48.740;22.174;2022-12-29T00:59:28;101110.22;;;-0.68;100.00
50349;BME280;36250;48.740;22.174;2022-12-29T01:01:54;101108.53;;;-0.69;100.00
50349;BME280;36250;48.740;22.174;2022-12-29T01:04:22;101106.78;;;-0.68;100.00
50349;BME280;36250;48.740;22.174;2022-12-29T01:06:48;101111.16;;;-0.69;100.00
50349;BME280;36250;48.740;22.174;2022-12-29T01:09:13;101109.47;;;-0.70;100.00
50349;BME280;36250;48.740;22.174;2022-12-29T01:11:58;101113.94;;;-0.72;100.00
50349;BME280;36250;48.740;22.174;2022-12-29T01:14:24;101105.50;;;-0.76;100.00
50349;BME280;36250;48.740;22.174;2022-12-29T01:16:51;101109.03;;;-0.77;100.00
50349;BME280;36250;48.740;22.174;2022-12-29T01:19:17;101114.31;;;-0.78;100.00
50349;BME280;36250;48.740;22.174;2022-12-29T01:21:42;101109.22;;;-0.80;100.00
50349;BME280;36250;48.740;22.174;2022-12-29T01:24:08;101107.56;;;-0.81;100.00
50349;BME280;36250;48.740;22.174;2022-12-29T01:26:33;101105.84;;;-0.82;100.00
50349;BME280;36250;48.740;22.174;2022-12-29T01:28:59;101105.84;;;-0.82;100.00
50349;BME280;36250;48.740;22.174;2022-12-29T01:31:24;101101.59;;;-0.83;100.00
50349;BME280;36250;48.740;22.174;2022-12-29T01:33:49;101112.91;;;-0.84;100.00
50349;BME280;36250;48.740;22.174;2022-12-29T01:36:18;101107.91;;;-0.87;100.00
50349;BME280;36250;48.740;22.174;2022-12-29T01:38:44;101104.38;;;-0.86;100.00
50349;BME280;36250;48.740;22.174;2022-12-29T01:41:11;101106.34;;;-0.90;100.00
50349;BME280;36250;48.740;22.174;2022-12-29T01:43:48;101104.00;;;-0.94;100.00
50349;BME280;36250;48.740;22.174;2022-12-29T01:48:39;101100.38;;;-1.06;100.00
50349;BME280;36250;48.740;22.174;2022-12-29T01:51:05;101100.69;;;-1.11;100.00
50349;BME280;36250;48.740;22.174;2022-12-29T01:53:33;101093.06;;;-1.14;100.00
50349;BME280;36250;48.740;22.174;2022-12-29T01:56:03;101100.94;;;-1.15;100.00
50349;BME280;36250;48.740;22.174;2022-12-29T01:58:33;101096.78;;;-1.18;100.00
50349;BME280;36250;48.740;22.174;2022-12-29T02:01:02;101088.97;;;-1.18;100.00
50349;BME280;36250;48.740;22.174;2022-12-29T02:03:28;101083.88;;;-1.20;100.00
50349;BME280;36250;48.740;22.174;2022-12-29T02:08:30;101084.72;;;-1.19;100.00
50349;BME280;36250;48.740;22.174;2022-12-29T02:10:56;101083.88;;;-1.20;100.00
50349;BME280;36250;48.740;22.174;2022-12-29T02:13:24;101083.13;;;-1.22;100.00
50349;BME280;36250;48.740;22.174;2022-12-29T02:24:15;101055.72;;;-1.27;100.00
50349;BME280;36250;48.740;22.174;2022-12-29T02:27:03;101056.47;;;-1.25;100.00
50349;BME280;36250;48.740;22.174;2022-12-29T02:29:38;101065.19;;;-1.26;100.00
50349;BME280;36250;48.740;22.174;2022-12-29T02:35:23;101060.09;;;-1.28;100.00
50349;BME280;36250;48.740;22.174;2022-12-29T02:45:50;101048.41;;;-1.35;100.00
50349;BME280;36250;48.740;22.174;2022-12-29T02:51:02;101051.06;;;-1.37;100.00
50349;BME280;36250;48.740;22.174;2022-12-29T02:53:30;101046.63;;;-1.35;100.00
50349;BME280;36250;48.740;22.174;2022-12-29T02:56:17;101050.06;;;-1.34;100.00
50349;BME280;36250;48.740;22.174;2022-12-29T02:58:42;101049.97;;;-1.33;100.00
50349;BME280;36250;48.740;22.174;2022-12-29T03:04:03;101049.13;;;-1.33;100.00
50349;BME280;36250;48.740;22.174;2022-12-29T03:06:52;101060.28;;;-1.31;100.00
50349;BME280;36250;48.740;22.174;2022-12-29T03:09:35;101054.03;;;-1.28;100.00
50349;BME280;36250;48.740;22.174;2022-12-29T03:12:30;101048.03;;;-1.29;100.00
50349;BME280;36250;48.740;22.174;2022-12-29T03:15:27;101045.44;;;-1.29;100.00
50349;BME280;36250;48.740;22.174;2022-12-29T03:18:22;101042.09;;;-1.31;100.00
50349;BME280;36250;48.740;22.174;2022-12-29T03:20:55;101050.50;;;-1.27;100.00
50349;BME280;36250;48.740;22.174;2022-12-29T03:23:24;101040.97;;;-1.27;100.00
50349;BME280;36250;48.740;22.174;2022-12-29T03:25:55;101034.19;;;-1.29;100.00
50349;BME280;36250;48.740;22.174;2022-12-29T03:28:24;101033.25;;;-1.28;100.00
50349;BME280;36250;48.740;22.174;2022-12-29T03:30:51;101036.78;;;-1.29;100.00
50349;BME280;36250;48.740;22.174;2022-12-29T03:33:21;101036.69;;;-1.28;100.00
50349;BME280;36250;48.740;22.174;2022-12-29T03:35:49;101040.84;;;-1.25;100.00
50349;BME280;36250;48.740;22.174;2022-12-29T03:40:52;101044.97;;;-1.21;100.00
50349;BME280;36250;48.740;22.174;2022-12-29T03:43:21;101038.84;;;-1.20;100.00
50349;BME280;36250;48.740;22.174;2022-12-29T03:45:46;101049.41;;;-1.23;100.00
50349;BME280;36250;48.740;22.174;2022-12-29T03:48:12;101047.00;;;-1.26;100.00
50349;BME280;36250;48.740;22.174;2022-12-29T03:50:37;101043.66;;;-1.28;100.00
50349;BME280;36250;48.740;22.174;2022-12-29T03:53:03;101039.50;;;-1.31;100.00
50349;BME280;36250;48.740;22.174;2022-12-29T03:55:28;101037.91;;;-1.34;100.00
50349;BME280;36250;48.740;22.174;2022-12-29T03:57:53;101038.75;;;-1.33;100.00
50349;BME280;36250;48.740;22.174;2022-12-29T04:00:19;101030.22;;;-1.35;100.00
50349;BME280;36250;48.740;22.174;2022-12-29T04:02:44;101041.53;;;-1.36;100.00
50349;BME280;36250;48.740;22.174;2022-12-29T04:05:09;101045.06;;;-1.37;100.00
50349;BME280;36250;48.740;22.174;2022-12-29T04:07:35;101052.00;;;-1.38;100.00
50349;BME280;36250;48.740;22.174;2022-12-29T04:10:00;101043.38;;;-1.38;100.00
50349;BME280;36250;48.740;22.174;2022-12-29T04:12:25;101053.19;;;-1.43;100.00
50349;BME280;36250;48.740;22.174;2022-12-29T04:14:51;101049.69;;;-1.42;100.00
50349;BME280;36250;48.740;22.174;2022-12-29T04:17:16;101054.03;;;-1.43;100.00
50349;BME280;36250;48.740;22.174;2022-12-29T04:19:41;101049.69;;;-1.42;100.00
50349;BME280;36250;48.740;22.174;2022-12-29T04:22:07;101055.63;;;-1.40;100.00
50349;BME280;36250;48.740;22.174;2022-12-29T04:24:32;101077.25;;;-1.40;100.00
50349;BME280;36250;48.740;22.174;2022-12-29T04:26:57;101082.09;;;-1.34;100.00
50349;BME280;36250;48.740;22.174;2022-12-29T04:29:22;101074.56;;;-1.24;100.00
50349;BME280;36250;48.740;22.174;2022-12-29T04:31:48;101067.34;;;-1.19;100.00
50349;BME280;36250;48.740;22.174;2022-12-29T04:34:13;101066.31;;;-1.16;100.00
50349;BME280;36250;48.740;22.174;2022-12-29T04:36:39;101062.06;;;-1.17;100.00
50349;BME280;36250;48.740;22.174;2022-12-29T04:39:05;101059.63;;;-1.20;100.00
50349;BME280;36250;48.740;22.174;2022-12-29T04:41:31;101060.47;;;-1.20;100.00
50349;BME280;36250;48.740;22.174;2022-12-29T04:43:56;101062.31;;;-1.22;100.00
50349;BME280;36250;48.740;22.174;2022-12-29T04:46:21;101066.59;;;-1.21;100.00
50349;BME280;36250;48.740;22.174;2022-12-29T04:48:47;101065.84;;;-1.23;100.00
50349;BME280;36250;48.740;22.174;2022-12-29T04:51:12;101070.84;;;-1.20;100.00
50349;BME280;36250;48.740;22.174;2022-12-29T04:53:38;101064.91;;;-1.22;100.00
50349;BME280;36250;48.740;22.174;2022-12-29T04:56:04;101057.31;;;-1.25;100.00
50349;BME280;36250;48.740;22.174;2022-12-29T04:58:29;101042.81;;;-1.29;100.00
50349;BME280;36250;48.740;22.174;2022-12-29T05:00:54;101033.91;;;-1.39;100.00
50349;BME280;36250;48.740;22.174;2022-12-29T05:03:20;101041.97;;;-1.44;100.00
50349;BME280;36250;48.740;22.174;2022-12-29T05:05:45;101051.53;;;-1.44;100.00
50349;BME280;36250;48.740;22.174;2022-12-29T05:08:10;101049.78;;;-1.44;100.00
50349;BME280;36250;48.740;22.174;2022-12-29T05:10:36;101056.47;;;-1.40;100.00
50349;BME280;36250;48.740;22.174;2022-12-29T05:13:01;101057.94;;;-1.36;100.00
50349;BME280;36250;48.740;22.174;2022-12-29T05:15:26;101044.69;;;-1.31;100.00
50349;BME280;36250;48.740;22.174;2022-12-29T05:18:16;101043.56;;;-1.27;100.00
50349;BME280;36250;48.740;22.174;2022-12-29T05:20:41;101048.75;;;-1.27;100.00
50349;BME280;36250;48.740;22.174;2022-12-29T05:23:07;101046.91;;;-1.25;100.00
50349;BME280;36250;48.740;22.174;2022-12-29T05:25:32;101031.13;;;-1.22;100.00
50349;BME280;36250;48.740;22.174;2022-12-29T05:27:58;101031.31;;;-1.25;100.00
50349;BME280;36250;48.740;22.174;2022-12-29T05:30:23;101030.38;;;-1.24;100.00
50349;BME280;36250;48.740;22.174;2022-12-29T05:32:49;101031.13;;;-1.22;100.00
50349;BME280;36250;48.740;22.174;2022-12-29T05:35:14;101039.19;;;-1.12;100.00
50349;BME280;36250;48.740;22.174;2022-12-29T05:37:39;101034.16;;;-1.00;100.00
50349;BME280;36250;48.740;22.174;2022-12-29T05:40:05;101030.06;;;-0.90;100.00
50349;BME280;36250;48.740;22.174;2022-12-29T05:42:31;101038.13;;;-0.80;100.00
50349;BME280;36250;48.740;22.174;2022-12-29T05:44:56;101032.47;;;-0.73;100.00
50349;BME280;36250;48.740;22.174;2022-12-29T05:47:21;101037.16;;;-0.65;100.00
50349;BME280;36250;48.740;22.174;2022-12-29T05:49:47;101041.25;;;-0.61;100.00
50349;BME280;36250;48.740;22.174;2022-12-29T05:52:46;101038.06;;;-0.51;100.00
50349;BME280;36250;48.740;22.174;2022-12-29T05:55:11;101027.25;;;-0.45;100.00
50349;BME280;36250;48.740;22.174;2022-12-29T05:57:37;101038.00;;;-0.37;100.00
50349;BME280;36250;48.740;22.174;2022-12-29T06:00:04;101034.06;;;-0.30;100.00
50349;BME280;36250;48.740;22.174;2022-12-29T06:02:30;101030.13;;;-0.22;100.00
50349;BME280;36250;48.740;22.174;2022-12-29T06:04:55;101025.38;;;-0.16;100.00
50349;BME280;36250;48.740;22.174;2022-12-29T06:07:21;101033.50;;;-0.07;100.00
50349;BME280;36250;48.740;22.174;2022-12-29T06:09:46;101027.81;;;0.01;100.00
50349;BME280;36250;48.740;22.174;2022-12-29T06:12:12;101022.91;;;0.09;100.00
50349;BME280;36250;48.740;22.174;2022-12-29T06:14:37;101024.16;;;0.16;100.00
50349;BME280;36250;48.740;22.174;2022-12-29T06:17:02;101031.47;;;0.24;100.00
50349;BME280;36250;48.740;22.174;2022-12-29T06:19:28;101024.09;;;0.31;100.00
50349;BME280;36250;48.740;22.174;2022-12-29T06:21:53;101022.81;;;0.36;100.00
50349;BME280;36250;48.740;22.174;2022-12-29T06:24:19;101024.19;;;0.42;100.00
50349;BME280;36250;48.740;22.174;2022-12-29T06:26:44;101022.94;;;0.48;100.00
50349;BME280;36250;48.740;22.174;2022-12-29T06:29:10;101022.53;;;0.54;100.00
50349;BME280;36250;48.740;22.174;2022-12-29T06:31:35;101014.38;;;0.58;100.00
50349;BME280;36250;48.740;22.174;2022-12-29T06:34:00;101005.44;;;0.63;100.00
50349;BME280;36250;48.740;22.174;2022-12-29T06:36:26;100993.94;;;0.65;100.00
50349;BME280;36250;48.740;22.174;2022-12-29T06:38:51;100998.13;;;0.68;100.00
50349;BME280;36250;48.740;22.174;2022-12-29T06:41:20;101013.53;;;0.71;100.00
50349;BME280;36250;48.740;22.174;2022-12-29T06:43:45;101023.56;;;0.77;100.00
50349;BME280;36250;48.740;22.174;2022-12-29T06:46:11;101026.16;;;0.77;100.00
50349;BME280;36250;48.740;22.174;2022-12-29T06:48:36;101031.16;;;0.80;100.00
50349;BME280;36250;48.740;22.174;2022-12-29T06:51:02;101027.50;;;0.83;100.00
50349;BME280;36250;48.740;22.174;2022-12-29T06:53:27;101024.69;;;0.86;100.00
50349;BME280;36250;48.740;22.174;2022-12-29T06:55:53;101018.41;;;0.89;100.00
50349;BME280;36250;48.740;22.174;2022-12-29T06:58:18;101031.16;;;0.93;100.00
50349;BME280;36250;48.740;22.174;2022-12-29T07:00:43;101017.75;;;0.98;100.00
50349;BME280;36250;48.740;22.174;2022-12-29T07:03:09;101037.50;;;1.02;100.00
50349;BME280;36250;48.740;22.174;2022-12-29T07:05:34;101033.72;;;1.06;100.00
50349;BME280;36250;48.740;22.174;2022-12-29T07:07:59;101030.78;;;1.11;100.00
50349;BME280;36250;48.740;22.174;2022-12-29T07:10:25;101029.75;;;1.13;100.00
50349;BME280;36250;48.740;22.174;2022-12-29T07:12:51;101027.00;;;1.15;100.00
50349;BME280;36250;48.740;22.174;2022-12-29T07:15:16;101026.06;;;1.16;100.00
50349;BME280;36250;48.740;22.174;2022-12-29T07:17:41;101034.31;;;1.23;100.00
50349;BME280;36250;48.740;22.174;2022-12-29T07:20:07;101029.59;;;1.28;100.00
50349;BME280;36250;48.740;22.174;2022-12-29T07:22:33;101038.84;;;1.32;100.00
50349;BME280;36250;48.740;22.174;2022-12-29T07:24:58;101031.75;;;1.34;100.00
50349;BME280;36250;48.740;22.174;2022-12-29T07:27:24;101028.19;;;1.35;100.00
50349;BME280;36250;48.740;22.174;2022-12-29T07:29:49;101039.25;;;1.39;100.00
50349;BME280;36250;48.740;22.174;2022-12-29T07:32:14;101029.41;;;1.42;100.00
50349;BME280;36250;48.740;22.174;2022-12-29T07:34:40;101028.28;;;1.47;100.00
50349;BME280;36250;48.740;22.174;2022-12-29T07:37:05;101024.72;;;1.48;100.00
50349;BME280;36250;48.740;22.174;2022-12-29T07:39:31;101024.50;;;1.51;100.00
50349;BME280;36250;48.740;22.174;2022-12-29T07:41:56;101034.50;;;1.57;100.00
50349;BME280;36250;48.740;22.174;2022-12-29T07:44:21;101044.59;;;1.62;100.00
50349;BME280;36250;48.740;22.174;2022-12-29T07:46:47;101031.44;;;1.63;100.00
50349;BME280;36250;48.740;22.174;2022-12-29T07:49:12;101028.59;;;1.66;100.00
50349;BME280;36250;48.740;22.174;2022-12-29T07:51:37;101030.38;;;1.66;100.00
50349;BME280;36250;48.740;22.174;2022-12-29T07:54:03;101029.09;;;1.71;100.00
50349;BME280;36250;48.740;22.174;2022-12-29T07:56:28;101038.50;;;1.74;100.00
50349;BME280;36250;48.740;22.174;2022-12-29T07:58:54;101048.72;;;1.77;100.00
50349;BME280;36250;48.740;22.174;2022-12-29T08:01:19;101032.69;;;1.82;100.00
50349;BME280;36250;48.740;22.174;2022-12-29T08:03:44;101036.53;;;1.89;100.00
50349;BME280;36250;48.740;22.174;2022-12-29T08:06:10;101037.97;;;1.93;100.00
50349;BME280;36250;48.740;22.174;2022-12-29T08:08:36;101034.19;;;1.97;100.00
50349;BME280;36250;48.740;22.174;2022-12-29T08:11:01;101027.66;;;2.03;100.00
50349;BME280;36250;48.740;22.174;2022-12-29T08:13:27;101014.97;;;2.10;100.00
50349;BME280;36250;48.740;22.174;2022-12-29T08:15:52;101026.13;;;2.12;100.00
50349;BME280;36250;48.740;22.174;2022-12-29T08:18:17;101033.75;;;2.15;100.00
50349;BME280;36250;48.740;22.174;2022-12-29T08:20:42;101046.34;;;2.21;100.00
50349;BME280;36250;48.740;22.174;2022-12-29T08:23:08;101046.13;;;2.24;100.00
50349;BME280;36250;48.740;22.174;2022-12-29T08:25:33;101037.69;;;2.32;100.00
50349;BME280;36250;48.740;22.174;2022-12-29T08:27:59;101035.00;;;2.34;100.00
50349;BME280;36250;48.740;22.174;2022-12-29T08:30:24;101040.69;;;2.39;100.00
50349;BME280;36250;48.740;22.174;2022-12-29T08:32:49;101037.63;;;2.45;100.00
50349;BME280;36250;48.740;22.174;2022-12-29T08:35:15;101036.41;;;2.49;100.00
50349;BME280;36250;48.740;22.174;2022-12-29T08:37:40;101031.56;;;2.56;100.00
50349;BME280;36250;48.740;22.174;2022-12-29T08:40:06;101035.13;;;2.55;100.00
50349;BME280;36250;48.740;22.174;2022-12-29T08:42:32;101042.03;;;2.56;100.00
50349;BME280;36250;48.740;22.174;2022-12-29T08:44:58;101033.47;;;2.54;100.00
50349;BME280;36250;48.740;22.174;2022-12-29T08:47:24;101029.53;;;2.48;100.00
50349;BME280;36250;48.740;22.174;2022-12-29T08:49:49;101034.91;;;2.46;100.00
50349;BME280;36250;48.740;22.174;2022-12-29T08:52:14;101029.53;;;2.48;100.00
50349;BME280;36250;48.740;22.174;2022-12-29T08:54:40;101033.94;;;2.48;100.00
50349;BME280;36250;48.740;22.174;2022-12-29T08:57:05;101033.81;;;2.49;100.00
50349;BME280;36250;48.740;22.174;2022-12-29T08:59:30;101039.75;;;2.51;100.00
50349;BME280;36250;48.740;22.174;2022-12-29T09:01:56;101038.81;;;2.52;100.00
50349;BME280;36250;48.740;22.174;2022-12-29T09:04:21;101046.66;;;2.52;100.00
50349;BME280;36250;48.740;22.174;2022-12-29T09:06:49;101038.09;;;2.50;100.00
50349;BME280;36250;48.740;22.174;2022-12-29T09:09:15;101029.53;;;2.48;100.00
50349;BME280;36250;48.740;22.174;2022-12-29T09:11:41;101031.44;;;2.46;100.00
50349;BME280;36250;48.740;22.174;2022-12-29T09:14:07;101031.78;;;2.41;100.00
50349;BME280;36250;48.740;22.174;2022-12-29T09:16:32;101028.69;;;2.36;100.00
50349;BME280;36250;48.740;22.174;2022-12-29T09:18:58;101034.50;;;2.40;100.00
50349;BME280;36250;48.740;22.174;2022-12-29T09:21:24;101030.63;;;2.45;100.00
50349;BME280;36250;48.740;22.174;2022-12-29T09:23:50;101032.75;;;2.52;100.00
50349;BME280;36250;48.740;22.174;2022-12-29T09:26:15;101029.06;;;2.54;100.00
50349;BME280;36250;48.740;22.174;2022-12-29T09:28:41;101027.88;;;2.58;100.00
50349;BME280;36250;48.740;22.174;2022-12-29T09:31:07;101024.78;;;2.65;100.00
50349;BME280;36250;48.740;22.174;2022-12-29T09:33:32;101026.09;;;2.70;100.00
50349;BME280;36250;48.740;22.174;2022-12-29T09:36:00;101022.03;;;2.78;100.00
50349;BME280;36250;48.740;22.174;2022-12-29T09:38:27;101025.97;;;2.83;100.00
50349;BME280;36250;48.740;22.174;2022-12-29T09:41:00;101014.78;;;2.81;100.00
50349;BME280;36250;48.740;22.174;2022-12-29T09:46:26;101007.19;;;2.89;100.00
50349;BME280;36250;48.740;22.174;2022-12-29T09:51:43;101000.16;;;3.01;100.00
50349;BME280;36250;48.740;22.174;2022-12-29T09:57:07;100990.75;;;3.10;100.00
50349;BME280;36250;48.740;22.174;2022-12-29T09:59:41;100991.56;;;3.11;100.00
50349;BME280;36250;48.740;22.174;2022-12-29T10:04:54;100985.38;;;3.12;100.00
50349;BME280;36250;48.740;22.174;2022-12-29T10:07:39;100980.97;;;3.12;100.00
50349;BME280;36250;48.740;22.174;2022-12-29T10:10:32;100979.19;;;3.13;100.00
50349;BME280;36250;48.740;22.174;2022-12-29T10:18:26;100974.19;;;3.10;100.00
50349;BME280;36250;48.740;22.174;2022-12-29T10:21:15;100964.81;;;3.07;100.00
50349;BME280;36250;48.740;22.174;2022-12-29T10:23:51;100963.84;;;3.08;100.00
50349;BME280;36250;48.740;22.174;2022-12-29T10:26:20;100968.13;;;3.09;100.00
50349;BME280;36250;48.740;22.174;2022-12-29T10:29:06;100976.44;;;3.14;100.00
50349;BME280;36250;48.740;22.174;2022-12-29T10:31:43;100975.59;;;3.14;100.00
50349;BME280;36250;48.740;22.174;2022-12-29T10:34:20;100970.38;;;3.14;100.00
50349;BME280;36250;48.740;22.174;2022-12-29T10:36:49;100964.31;;;3.13;100.00
50349;BME280;36250;48.740;22.174;2022-12-29T10:44:33;100954.09;;;3.10;100.00
50349;BME280;36250;48.740;22.174;2022-12-29T10:47:03;100955.75;;;3.11;100.00
50349;BME280;36250;48.740;22.174;2022-12-29T10:49:30;100945.28;;;3.11;100.00
50349;BME280;36250;48.740;22.174;2022-12-29T10:52:02;100941.00;;;3.10;100.00
50349;BME280;36250;48.740;22.174;2022-12-29T10:54:55;100943.63;;;3.10;100.00
50349;BME280;36250;48.740;22.174;2022-12-29T10:57:26;100942.78;;;3.10;100.00
50349;BME280;36250;48.740;22.174;2022-12-29T10:59:53;100936.59;;;3.11;100.00
50349;BME280;36250;48.740;22.174;2022-12-29T11:04:55;100925.28;;;3.10;100.00
50349;BME280;36250;48.740;22.174;2022-12-29T11:07:24;100941.13;;;3.09;100.00
50349;BME280;36250;48.740;22.174;2022-12-29T11:09:51;100945.53;;;3.08;100.00
50349;BME280;36250;48.740;22.174;2022-12-29T11:12:21;100944.69;;;3.08;100.00
50349;BME280;36250;48.740;22.174;2022-12-29T11:14:47;100933.97;;;3.11;100.00
50349;BME280;36250;48.740;22.174;2022-12-29T11:17:24;100933.84;;;3.12;100.00
50349;BME280;36250;48.740;22.174;2022-12-29T11:19:50;100933.34;;;3.18;100.00
50349;BME280;36250;48.740;22.174;2022-12-29T11:22:25;100934.06;;;3.21;100.00
50349;BME280;36250;48.740;22.174;2022-12-29T11:24:52;100933.09;;;3.22;100.00
50349;BME280;36250;48.740;22.174;2022-12-29T11:27:25;100920.13;;;3.20;100.00
50349;BME280;36250;48.740;22.174;2022-12-29T11:29:52;100909.66;;;3.20;100.00
50349;BME280;36250;48.740;22.174;2022-12-29T11:32:25;100910.34;;;3.22;100.00
50349;BME280;36250;48.740;22.174;2022-12-29T11:34:52;100914.53;;;3.25;100.00
50349;BME280;36250;48.740;22.174;2022-12-29T11:37:19;100917.59;;;3.30;100.00
50349;BME280;36250;48.740;22.174;2022-12-29T11:40:03;100912.09;;;3.33;100.00
50349;BME280;36250;48.740;22.174;2022-12-29T11:42:37;100928.41;;;3.37;100.00
50349;BME280;36250;48.740;22.174;2022-12-29T11:47:35;100919.91;;;3.44;100.00
50349;BME280;36250;48.740;22.174;2022-12-29T11:50:06;100924.06;;;3.47;100.00
50349;BME280;36250;48.740;22.174;2022-12-29T11:52:35;100914.44;;;3.47;100.00
50349;BME280;36250;48.740;22.174;2022-12-29T11:55:05;100906.44;;;3.49;100.00
50349;BME280;36250;48.740;22.174;2022-12-29T11:57:33;100914.19;;;3.51;100.00
50349;BME280;36250;48.740;22.174;2022-12-29T12:00:02;100920.13;;;3.53;100.00
50349;BME280;36250;48.740;22.174;2022-12-29T12:02:54;100917.25;;;3.56;100.00
50349;BME280;36250;48.740;22.174;2022-12-29T12:05:41;100906.06;;;3.54;100.00
50349;BME280;36250;48.740;22.174;2022-12-29T12:08:13;100913.47;;;3.48;100.00
50349;BME280;36250;48.740;22.174;2022-12-29T12:10:47;100910.72;;;3.50;100.00
50349;BME280;36250;48.740;22.174;2022-12-29T12:13:22;100907.13;;;3.51;100.00
50349;BME280;36250;48.740;22.174;2022-12-29T12:16:24;100901.09;;;3.51;100.00
50349;BME280;36250;48.740;22.174;2022-12-29T12:18:56;100897.75;;;3.48;100.00
50349;BME280;36250;48.740;22.174;2022-12-29T12:21:25;100898.59;;;3.49;100.00
50349;BME280;36250;48.740;22.174;2022-12-29T12:26:55;100906.69;;;3.46;100.00
50349;BME280;36250;48.740;22.174;2022-12-29T12:29:31;100904.78;;;3.48;100.00
50349;BME280;36250;48.740;22.174;2022-12-29T12:32:13;100873.59;;;3.45;100.00
50349;BME280;36250;48.740;22.174;2022-12-29T12:34:42;100834.69;;;3.40;100.00
50349;BME280;36250;48.740;22.174;2022-12-29T12:40:13;100883.75;;;3.38;100.00
50349;BME280;36250;48.740;22.174;2022-12-29T12:42:58;100906.63;;;3.36;100.00
50349;BME280;36250;48.740;22.174;2022-12-29T12:53:40;100911.50;;;3.08;100.00
50349;BME280;36250;48.740;22.174;2022-12-29T12:59:21;100881.34;;;3.14;100.00
50349;BME280;36250;48.740;22.174;2022-12-29T13:04:36;100875.88;;;3.17;100.00
50349;BME280;36250;48.740;22.174;2022-12-29T13:07:17;100876.97;;;3.14;100.00
50349;BME280;36250;48.740;22.174;2022-12-29T13:12:50;100870.00;;;3.25;100.00
50349;BME280;36250;48.740;22.174;2022-12-29T13:18:22;100868.81;;;3.29;100.00
50349;BME280;36250;48.740;22.174;2022-12-29T13:20:58;100866.69;;;3.23;100.00
50349;BME280;36250;48.740;22.174;2022-12-29T13:26:05;100865.84;;;3.22;100.00
50349;BME280;36250;48.740;22.174;2022-12-29T13:31:28;100871.31;;;3.30;100.00
50349;BME280;36250;48.740;22.174;2022-12-29T13:34:21;100858.06;;;3.32;100.00
50349;BME280;36250;48.740;22.174;2022-12-29T13:36:53;100862.50;;;3.31;100.00
50349;BME280;36250;48.740;22.174;2022-12-29T13:41:57;100862.50;;;3.31;100.00
50349;BME280;36250;48.740;22.174;2022-12-29T13:44:35;100865.47;;;3.27;100.00
50349;BME280;36250;48.740;22.174;2022-12-29T13:47:20;100864.63;;;3.26;100.00
50349;BME280;36250;48.740;22.174;2022-12-29T13:49:50;100862.16;;;3.25;100.00
50349;BME280;36250;48.740;22.174;2022-12-29T13:52:25;100854.56;;;3.22;100.00
50349;BME280;36250;48.740;22.174;2022-12-29T14:03:54;100851.81;;;2.90;100.00
50349;BME280;36250;48.740;22.174;2022-12-29T14:06:34;100860.13;;;2.96;100.00
50349;BME280;36250;48.740;22.174;2022-12-29T14:09:52;100871.56;;;2.95;100.00
50349;BME280;36250;48.740;22.174;2022-12-29T14:11:52;100870.72;;;2.94;100.00
50349;BME280;36250;48.740;22.174;2022-12-29T14:14:25;100876.22;;;2.91;100.00
50349;BME280;36250;48.740;22.174;2022-12-29T14:16:53;100871.94;;;2.90;100.00
50349;BME280;36250;48.740;22.174;2022-12-29T14:19:26;100866.22;;;2.85;100.00
50349;BME280;36250;48.740;22.174;2022-12-29T14:21:55;100871.25;;;2.77;100.00
50349;BME280;36250;48.740;22.174;2022-12-29T14:26:53;100871.53;;;2.62;100.00
50349;BME280;36250;48.740;22.174;2022-12-29T14:31:46;100880.56;;;2.58;100.00
50349;BME280;36250;48.740;22.174;2022-12-29T14:36:59;100882.09;;;2.60;100.00
50349;BME280;36250;48.740;22.174;2022-12-29T14:47:18;100861.78;;;2.64;100.00